Terminal Aerodrome Forecast
Issued by NWS Greer, SC

Home | Current Version | Previous Version | Text Only | Print | Product List | Glossary On
Versions: 1 2 3 4 5 6 7 8 9 10 11 12 13 14 15 16
000
FTUS42 KGSP 190209 AAA
TAFAVL
TAF AMD
KAVL 190209Z 1902/1924 19012G22KT 6SM -SHRA OVC015 WS020/20040KT
      TEMPO 1903/1905 4SM SHRA OVC007
     FM190600 33018G32KT P6SM BKN035
     FM190800 33020G33KT P6SM BKN020
     FM191600 33020G35KT P6SM FEW020 SCT040
     FM191800 34016G28KT P6SM FEW250=

USA.gov is the U.S. government's official web portal to all federal, state and local government web resources and services.